Time;durP1;ratioP1;P1;durP2;ratioP2;P2;SDS_P1;SDS_P2;PMS_P1;PMS_P2;Temp;Humidity;BMP_temperature;BMP_pressure;BME280_temperature;BME280_humidity;BME280_pressure;Samples;Min_cycle;Max_cycle;Signal;HPM_P1;HPM_P2
2021/05/06 00:01:52;;;;;;;13.55;5.05;;;;;;;4.06;69.85;97791.34;5052429;28;20048;-83
2021/05/06 00:34:06;;;;;;;15.68;5.05;;;;;;;3.86;69.47;97818.16;5051539;28;20507;-83
2021/05/06 00:36:33;;;;;;;15.98;5.13;;;;;;;3.85;69.11;97819.25;5051605;28;20017;-83
2021/05/06 00:39:04;;;;;;;11.88;4.18;;;;;;;3.81;68.95;97823.56;5051541;28;20024;-83
2021/05/06 00:41:55;;;;;;;16.65;5.38;;;;;;;3.82;69.59;97821.66;5050314;28;20025;-83
2021/05/06 00:44:58;;;;;;;11.43;4.43;;;;;;;3.81;69.33;97818.16;5050475;28;20107;-82
2021/05/06 01:00:45;;;;;;;17.40;7.90;;;;;;;3.70;69.05;97820.00;5052240;28;20036;-83
2021/05/06 01:06:01;;;;;;;16.40;6.43;;;;;;;3.60;69.00;97822.72;5052293;28;20135;-83
2021/05/06 01:08:31;;;;;;;15.10;5.82;;;;;;;3.56;68.97;97818.91;5051414;28;20462;-83
2021/05/06 01:13:32;;;;;;;20.88;7.53;;;;;;;3.58;68.73;97827.56;5051856;28;20377;-83
2021/05/06 01:15:58;;;;;;;26.60;9.85;;;;;;;3.57;69.44;97832.16;5052156;28;20021;-83
2021/05/06 01:18:24;;;;;;;31.35;10.85;;;;;;;3.61;68.91;97837.06;5051156;28;20413;-83
2021/05/06 01:20:54;;;;;;;22.33;7.82;;;;;;;3.60;68.60;97832.72;5050106;28;20094;-83
2021/05/06 01:23:21;;;;;;;;;;;;;;;3.61;68.64;97834.34;5052407;28;20425;-83
2021/05/06 01:25:58;;;;;;;16.48;6.60;;;;;;;3.55;68.87;97841.66;5051546;28;19916;-83
2021/05/06 01:28:34;;;;;;;16.10;6.45;;;;;;;3.50;68.60;97837.03;5051659;28;20021;-83
2021/05/06 01:31:07;;;;;;;12.60;5.43;;;;;;;3.45;68.99;97834.31;5048592;28;20028;-83
2021/05/06 01:36:02;;;;;;;15.05;6.32;;;;;;;3.43;68.52;97844.59;5051721;28;20048;-83
2021/05/06 01:43:46;;;;;;;17.90;6.57;;;;;;;3.40;68.86;97845.13;5050880;28;20041;-83
2021/05/06 01:46:36;;;;;;;16.63;6.13;;;;;;;3.39;69.00;97844.31;5051203;28;20025;-83
2021/05/06 01:59:52;;;;;;;27.23;10.25;;;;;;;3.31;68.31;97844.00;5051288;28;20040;-83
2021/05/06 02:02:17;;;;;;;87.22;27.02;;;;;;;3.25;68.55;97851.31;5051034;28;20091;-83
2021/05/06 02:04:43;;;;;;;56.47;13.40;;;;;;;3.19;68.72;97853.16;5051138;28;20465;-83
2021/05/06 02:07:08;;;;;;;31.02;7.25;;;;;;;3.17;68.85;97858.00;5051230;28;20041;-83
2021/05/06 02:09:34;;;;;;;33.80;10.05;;;;;;;3.09;68.51;97836.81;5051037;28;20183;-83
2021/05/06 02:11:59;;;;;;;41.33;9.75;;;;;;;3.13;69.04;97849.59;5051079;28;20027;-83
2021/05/06 02:14:25;;;;;;;29.00;8.25;;;;;;;3.10;68.95;97847.41;5049506;28;20025;-83
2021/05/06 02:16:51;;;;;;;50.97;11.25;;;;;;;3.10;68.22;97852.00;5050337;28;20028;-82
2021/05/06 02:19:25;;;;;;;27.00;7.22;;;;;;;3.08;68.96;97840.63;5050410;28;20035;-82
2021/05/06 02:21:50;;;;;;;32.50;8.60;;;;;;;3.08;69.18;97846.03;5033285;28;20017;-83
2021/05/06 02:24:15;;;;;;;32.72;9.32;;;;;;;3.08;68.67;97843.31;5050340;28;20035;-83
2021/05/06 02:26:41;;;;;;;24.65;8.07;;;;;;;3.07;68.61;97837.09;5051021;28;20096;-83
2021/05/06 02:29:06;;;;;;;19.67;6.35;;;;;;;3.08;68.33;97838.75;5051056;28;20074;-83
2021/05/06 02:31:32;;;;;;;18.45;6.05;;;;;;;3.07;68.59;97844.41;5051493;28;20021;-84
2021/05/06 02:33:57;;;;;;;14.07;4.60;;;;;;;3.07;68.81;97847.94;5033221;28;20556;-83
2021/05/06 02:36:22;;;;;;;100.18;34.47;;;;;;;3.03;68.54;97841.41;5050767;28;20025;-83
2021/05/06 02:38:48;;;;;;;46.65;14.23;;;;;;;3.04;68.77;97848.47;5050827;28;20017;-83
2021/05/06 02:41:13;;;;;;;36.20;13.15;;;;;;;3.03;68.50;97854.16;5050726;28;20041;-83
2021/05/06 02:43:38;;;;;;;21.45;7.10;;;;;;;3.03;68.44;97862.28;5051032;28;20029;-84
2021/05/06 02:46:04;;;;;;;16.27;5.22;;;;;;;3.00;68.94;97852.78;5050768;28;20025;-83
2021/05/06 02:48:29;;;;;;;19.83;5.03;;;;;;;2.96;69.20;97859.78;5050784;28;20028;-83
2021/05/06 02:50:58;;;;;;;17.52;5.38;;;;;;;2.93;68.88;97861.13;5050596;28;20025;-83
2021/05/06 02:53:28;;;;;;;23.30;8.85;;;;;;;2.90;68.68;97867.06;5050574;28;20104;-84
2021/05/06 02:56:04;;;;;;;21.23;7.20;;;;;;;2.89;68.81;97878.97;5050744;28;20023;-84
2021/05/06 03:03:47;;;;;;;15.85;6.75;;;;;;;2.87;68.89;97889.25;5050447;28;20598;-84
2021/05/06 03:06:18;;;;;;;14.73;7.05;;;;;;;2.87;69.33;97891.13;5050789;28;20047;-83
2021/05/06 03:08:46;;;;;;;12.90;6.35;;;;;;;2.89;69.58;97895.25;5050555;28;20031;-83
2021/05/06 03:24:25;;;;;;;9.52;4.75;;;;;;;2.89;69.10;97910.66;5050468;28;20048;-81
2021/05/06 03:26:52;;;;;;;9.55;4.30;;;;;;;2.91;69.63;97919.34;5050462;28;20071;-81
2021/05/06 03:29:23;;;;;;;9.95;6.20;;;;;;;2.89;69.07;97925.03;5050455;28;20036;-81
2021/05/06 03:32:04;;;;;;;9.98;6.20;;;;;;;2.91;69.12;97935.59;5050680;28;20017;-81
2021/05/06 03:42:40;;;;;;;11.52;5.05;;;;;;;2.88;69.20;97933.41;5054045;28;20569;-81
2021/05/06 03:50:50;;;;;;;10.55;5.82;;;;;;;2.90;69.25;97940.22;5053619;28;20025;-81
2021/05/06 04:36:00;;;;;;;10.95;4.60;;;;;;;3.59;69.09;97986.47;5053365;28;20098;-81
2021/05/06 04:38:26;;;;;;;10.10;3.72;;;;;;;3.64;68.97;97991.94;5051905;28;20029;-82
2021/05/06 05:03:17;;;;;;;8.35;3.03;;;;;;;4.17;68.40;97986.50;5054198;28;20067;-85
2021/05/06 05:04:56;;;;;;;5.53;2.85;;;;;;;4.38;67.96;98005.53;5073665;28;20044;-86
2021/05/06 05:07:41;;;;;;;5.45;2.70;;;;;;;4.44;67.20;98004.47;5040902;28;20393;-84
2021/05/06 05:13:18;;;;;;;6.38;3.10;;;;;;;4.58;67.74;97999.34;5057983;28;20098;-85
2021/05/06 05:24:01;;;;;;;7.93;3.10;;;;;;;4.88;66.28;98007.84;5052349;28;20037;-83
2021/05/06 05:26:26;;;;;;;6.57;3.28;;;;;;;4.98;65.81;98004.31;5059797;28;20025;-84
2021/05/06 05:28:51;;;;;;;8.32;3.20;;;;;;;5.03;66.03;98013.28;5053317;28;20107;-84
2021/05/06 05:31:17;;;;;;;6.45;3.00;;;;;;;5.11;65.54;98003.78;5053387;28;20025;-83
2021/05/06 05:33:49;;;;;;;7.78;3.28;;;;;;;5.17;64.97;98002.69;5053205;28;20021;-84
2021/05/06 05:36:24;;;;;;;9.30;4.72;;;;;;;5.22;65.01;98007.31;5053040;28;20099;-80
2021/05/06 05:38:58;;;;;;;6.85;3.58;;;;;;;5.29;64.55;98001.59;5068111;28;20052;-81
2021/05/06 05:56:40;;;;;;;6.47;3.13;;;;;;;5.61;63.01;97989.59;5035168;28;20119;-81
2021/05/06 05:59:06;;;;;;;4.88;2.83;;;;;;;5.66;62.56;97995.81;5045123;28;20029;-80
2021/05/06 06:01:31;;;;;;;5.78;3.20;;;;;;;5.73;62.04;97990.09;5052025;28;20040;-82
2021/05/06 06:03:57;;;;;;;7.43;2.75;;;;;;;5.78;62.93;98003.69;5052417;28;20020;-81
2021/05/06 06:06:22;;;;;;;6.70;3.03;;;;;;;5.83;62.15;97983.81;5052291;28;20484;-80
2021/05/06 06:08:48;;;;;;;6.32;3.67;;;;;;;5.90;61.89;97995.25;5052385;28;20486;-80
2021/05/06 06:11:15;;;;;;;6.18;2.63;;;;;;;5.96;62.64;97993.31;5052717;28;20029;-80
2021/05/06 06:13:41;;;;;;;4.55;2.53;;;;;;;6.03;61.42;97990.31;5058903;28;20024;-80
2021/05/06 06:21:13;;;;;;;5.95;2.75;;;;;;;6.19;61.84;97980.16;5042487;28;20033;-85
2021/05/06 06:23:38;;;;;;;5.88;2.42;;;;;;;6.27;61.78;97993.22;5052244;28;20029;-86
2021/05/06 06:26:04;;;;;;;3.95;2.15;;;;;;;6.35;60.44;97989.06;5047799;28;20469;-86
2021/05/06 06:28:44;;;;;;;5.35;2.95;;;;;;;6.39;60.74;98001.03;5032641;28;20026;-86
2021/05/06 06:33:58;;;;;;;4.13;2.13;;;;;;;6.49;59.90;97997.47;5021679;28;20116;-86
2021/05/06 06:36:24;;;;;;;4.95;2.40;;;;;;;6.51;59.45;98003.47;5032445;28;20113;-86
2021/05/06 06:38:49;;;;;;;5.43;2.80;;;;;;;6.51;59.89;98004.25;5032410;28;20466;-84
2021/05/06 06:41:15;;;;;;;5.72;2.92;;;;;;;6.58;59.90;98008.59;5043706;28;20571;-87
2021/05/06 06:43:43;;;;;;;6.78;2.88;;;;;;;6.61;60.29;98008.84;5031209;28;20051;-87
2021/05/06 06:46:09;;;;;;;5.40;2.65;;;;;;;6.63;59.11;98001.19;5032441;28;20171;-86
2021/05/06 06:48:34;;;;;;;5.28;3.03;;;;;;;6.66;59.30;98006.06;5032264;28;20530;-87
2021/05/06 06:50:59;;;;;;;8.77;3.25;;;;;;;6.75;60.22;98014.47;5032289;28;20486;-87
2021/05/06 06:53:25;;;;;;;6.03;2.72;;;;;;;6.79;58.84;98015.53;5032323;28;20363;-87
2021/05/06 06:55:50;;;;;;;5.05;2.83;;;;;;;6.85;59.29;98016.34;5032231;28;20060;-85
2021/05/06 06:58:16;;;;;;;12.15;4.20;;;;;;;6.93;59.79;98014.91;5031584;28;20022;-84
2021/05/06 07:00:43;;;;;;;6.97;2.67;;;;;;;7.01;58.71;98000.69;5030104;28;20021;-84
2021/05/06 07:03:09;;;;;;;7.07;3.15;;;;;;;6.99;58.54;98009.13;5031674;28;20025;-84
2021/05/06 07:05:34;;;;;;;5.18;2.65;;;;;;;7.08;58.54;98011.25;5031915;28;20021;-80
2021/05/06 07:08:15;;;;;;;37.50;14.32;;;;;;;7.11;58.60;98011.53;5035150;28;20017;-80
2021/05/06 07:10:43;;;;;;;6.65;3.33;;;;;;;7.17;58.44;98015.00;5035754;28;20299;-79
2021/05/06 07:13:09;;;;;;;7.10;3.10;;;;;;;7.25;58.75;98013.56;5036000;28;20029;-79
2021/05/06 07:15:34;;;;;;;6.00;3.08;;;;;;;7.32;57.99;98018.72;5036102;28;20033;-81
2021/05/06 07:17:59;;;;;;;20.58;7.57;;;;;;;7.38;58.19;98020.28;5035889;28;20052;-81
2021/05/06 07:20:25;;;;;;;5.85;3.15;;;;;;;7.42;57.33;98010.44;5036043;28;20033;-79
2021/05/06 07:22:51;;;;;;;6.15;2.88;;;;;;;7.48;58.04;98009.28;5036072;28;20355;-81
2021/05/06 07:25:16;;;;;;;7.50;3.05;;;;;;;7.59;57.88;98015.47;5034829;28;20036;-82
2021/05/06 07:27:42;;;;;;;5.93;2.53;;;;;;;7.64;57.16;98007.22;5035903;28;20474;-81
2021/05/06 07:30:08;;;;;;;6.22;3.10;;;;;;;7.73;57.30;98010.16;5035120;28;20068;-81
2021/05/06 07:32:33;;;;;;;4.38;2.42;;;;;;;7.81;56.88;98000.53;5034388;28;20501;-81
2021/05/06 07:34:59;;;;;;;4.43;2.78;;;;;;;7.81;56.32;98003.25;5034125;28;20026;-81
2021/05/06 07:37:24;;;;;;;5.95;3.13;;;;;;;7.84;56.50;98003.47;5050551;28;20060;-81
2021/05/06 07:39:49;;;;;;;4.65;3.03;;;;;;;7.88;56.15;98001.78;5035828;28;20079;-81
2021/05/06 07:42:15;;;;;;;5.03;3.33;;;;;;;7.91;56.58;97997.69;5051064;28;20389;-82
2021/05/06 07:44:40;;;;;;;5.80;3.13;;;;;;;8.01;55.94;97999.47;5051079;28;20036;-81
2021/05/06 07:47:10;;;;;;;6.97;3.30;;;;;;;8.07;55.91;97992.03;5035552;28;20152;-81
2021/05/06 07:49:35;;;;;;;4.65;2.85;;;;;;;8.19;56.74;97990.50;5035885;28;20029;-81
2021/05/06 07:52:01;;;;;;;5.63;3.17;;;;;;;8.38;56.14;97988.91;5035848;28;20032;-81
2021/05/06 07:54:26;;;;;;;3.95;2.72;;;;;;;8.46;55.98;97983.63;5035400;28;20041;-82
2021/05/06 07:56:51;;;;;;;4.60;2.40;;;;;;;8.54;55.76;97981.38;5035678;28;20474;-82
2021/05/06 07:59:17;;;;;;;5.75;2.67;;;;;;;8.61;55.85;97977.16;5035353;28;20488;-81
2021/05/06 08:01:42;;;;;;;5.63;2.63;;;;;;;8.70;54.99;97977.31;5035079;28;20033;-81
2021/05/06 08:04:07;;;;;;;6.18;2.90;;;;;;;8.74;54.42;97975.59;5050320;28;20025;-81
2021/05/06 08:06:33;;;;;;;5.68;2.97;;;;;;;8.75;54.08;97968.22;5035223;28;20048;-81
2021/05/06 08:08:59;;;;;;;4.65;2.50;;;;;;;8.83;55.49;97966.75;5035040;28;20028;-81
2021/05/06 08:11:25;;;;;;;4.78;2.50;;;;;;;8.94;53.28;97970.94;5050550;28;20040;-82
2021/05/06 08:13:50;;;;;;;3.97;2.50;;;;;;;8.96;53.00;97973.38;5050395;28;20374;-82
2021/05/06 08:16:16;;;;;;;3.80;2.55;;;;;;;8.92;52.04;97967.69;5034780;28;20029;-81
2021/05/06 08:18:41;;;;;;;3.10;2.35;;;;;;;8.91;53.61;97957.88;5049422;28;20045;-81
2021/05/06 08:21:07;;;;;;;4.07;2.88;;;;;;;9.06;54.84;97959.53;5034607;28;20101;-81
2021/05/06 08:23:33;;;;;;;5.00;3.17;;;;;;;9.22;52.83;97973.78;5050001;28;20022;-83
2021/05/06 08:25:59;;;;;;;4.53;2.45;;;;;;;9.28;53.05;97953.44;5034542;28;20017;-83
2021/05/06 08:28:24;;;;;;;6.00;2.80;;;;;;;9.44;53.38;97975.88;5049949;28;20040;-81
2021/05/06 08:30:49;;;;;;;7.00;3.50;;;;;;;9.58;53.26;97975.88;5034515;28;20021;-81
2021/05/06 08:33:15;;;;;;;6.00;2.85;;;;;;;9.70;52.64;97969.13;5034382;28;20026;-81
2021/05/06 08:35:40;;;;;;;4.38;2.60;;;;;;;9.72;53.20;97964.94;5034298;28;20025;-81
2021/05/06 08:38:06;;;;;;;4.95;2.47;;;;;;;9.79;53.19;97973.59;5034271;28;20378;-81
2021/05/06 08:40:31;;;;;;;4.65;2.70;;;;;;;9.91;51.73;97962.13;5034174;28;20021;-81
2021/05/06 08:42:57;;;;;;;4.18;2.53;;;;;;;10.02;50.96;97970.16;5034502;28;20053;-81
2021/05/06 08:45:27;;;;;;;4.75;3.25;;;;;;;10.06;52.06;97973.91;5034428;28;20021;-80
2021/05/06 08:47:53;;;;;;;4.15;2.55;;;;;;;10.04;49.80;97978.88;5034304;28;20029;-80
2021/05/06 08:50:19;;;;;;;4.32;1.98;;;;;;;9.97;49.36;97979.28;5034367;28;20090;-81
2021/05/06 08:52:49;;;;;;;4.18;2.42;;;;;;;9.89;49.67;97978.03;5034744;28;20033;-81
2021/05/06 08:55:15;;;;;;;5.30;2.53;;;;;;;9.85;50.14;97968.00;5034418;28;20045;-80
2021/05/06 08:57:40;;;;;;;4.03;1.98;;;;;;;9.88;49.57;97975.63;5049509;28;20029;-80
2021/05/06 09:00:06;;;;;;;5.35;3.10;;;;;;;9.96;50.04;97975.72;5034049;28;20025;-80
2021/05/06 09:02:32;;;;;;;5.30;2.85;;;;;;;10.05;50.37;97969.53;5033895;28;20114;-80
2021/05/06 09:05:06;;;;;;;4.57;2.63;;;;;;;10.19;50.63;97977.75;5033991;28;20047;-80
2021/05/06 09:07:32;;;;;;;5.15;2.75;;;;;;;10.30;50.57;97975.59;5033949;28;20021;-80
2021/05/06 09:09:58;;;;;;;3.95;2.30;;;;;;;10.43;50.48;97963.84;5033797;28;20495;-80
2021/05/06 09:12:37;;;;;;;6.10;3.03;;;;;;;10.66;51.05;97967.44;5033786;28;20100;-80
2021/05/06 09:15:16;;;;;;;3.78;2.38;;;;;;;10.75;49.10;97947.53;5049312;28;20373;-80
2021/05/06 09:17:41;;;;;;;3.80;1.92;;;;;;;10.79;48.89;97954.00;5033316;28;20037;-81
2021/05/06 09:20:11;;;;;;;3.78;1.80;;;;;;;10.78;46.39;97952.41;5033374;28;20113;-80
2021/05/06 09:22:38;;;;;;;;;;;;;;;10.78;46.07;97952.41;5033654;28;20104;-80
2021/05/06 09:25:36;;;;;;;3.88;1.63;;;;;;;10.96;48.77;97954.13;5033443;28;19913;-80
2021/05/06 09:28:19;;;;;;;6.15;2.33;;;;;;;11.10;46.01;97948.56;5033625;28;20032;-80
2021/05/06 09:30:50;;;;;;;3.20;1.60;;;;;;;11.15;45.98;97945.72;5032535;28;20193;-81
2021/05/06 09:33:17;;;;;;;3.50;1.90;;;;;;;11.19;45.54;97945.91;5033324;28;20025;-80
2021/05/06 09:35:48;;;;;;;3.13;1.83;;;;;;;11.18;45.47;97955.28;5033501;28;20112;-80
2021/05/06 09:38:22;;;;;;;4.82;2.08;;;;;;;11.26;46.99;97951.75;5033166;28;20030;-80
2021/05/06 09:40:48;;;;;;;3.70;2.10;;;;;;;11.42;45.63;97948.63;5033035;28;20099;-79
2021/05/06 09:43:23;;;;;;;3.13;2.10;;;;;;;11.54;45.65;97953.53;5033054;28;20458;-80
2021/05/06 09:45:48;;;;;;;3.58;2.25;;;;;;;11.57;45.42;97950.97;5032880;28;20033;-79
2021/05/06 09:48:19;;;;;;;3.63;2.13;;;;;;;11.56;45.15;97948.53;5033203;28;20060;-79
2021/05/06 09:50:49;;;;;;;3.40;2.00;;;;;;;11.53;44.54;97951.91;5033300;28;20096;-79
2021/05/06 09:53:21;;;;;;;2.75;1.92;;;;;;;11.41;44.30;97955.25;5032802;28;20021;-79
2021/05/06 09:55:47;;;;;;;3.58;1.80;;;;;;;11.26;44.52;97956.44;5032830;28;20021;-80
2021/05/06 09:58:18;;;;;;;3.78;2.25;;;;;;;11.24;45.51;97953.19;5032825;28;20040;-80
2021/05/06 10:00:45;;;;;;;4.50;2.50;;;;;;;11.23;45.30;97960.59;5031592;28;20037;-79
2021/05/06 10:03:30;;;;;;;4.43;2.20;;;;;;;11.28;45.01;97963.22;5032716;28;20075;-80
2021/05/06 10:05:57;;;;;;;4.43;2.10;;;;;;;11.28;45.46;97956.94;5032606;28;20037;-79
2021/05/06 10:08:36;;;;;;;5.32;2.22;;;;;;;11.24;44.42;97956.75;5032813;28;20084;-79
2021/05/06 10:11:15;;;;;;;2.92;1.83;;;;;;;11.26;44.35;97951.75;5032958;28;20029;-79
2021/05/06 10:13:47;;;;;;;5.68;2.20;;;;;;;11.21;44.38;97960.09;5032635;28;20049;-79
2021/05/06 10:16:15;;;;;;;5.18;2.60;;;;;;;11.28;44.35;97965.19;5047740;28;20017;-79
2021/05/06 10:18:42;;;;;;;4.18;2.20;;;;;;;11.31;45.00;97954.38;5032711;28;20051;-79
2021/05/06 10:21:09;;;;;;;4.15;2.20;;;;;;;11.39;45.87;97960.22;5032264;28;20110;-79
2021/05/06 10:23:36;;;;;;;4.32;2.38;;;;;;;11.46;45.18;97958.66;5032616;28;20037;-79
2021/05/06 10:26:02;;;;;;;4.72;2.97;;;;;;;11.55;45.41;97964.22;5031342;28;20026;-79
2021/05/06 10:28:30;;;;;;;4.22;2.40;;;;;;;11.53;44.43;97951.91;5047805;28;20056;-79
2021/05/06 10:30:55;;;;;;;5.55;3.25;;;;;;;11.53;45.48;97958.22;5032444;28;20044;-79
2021/05/06 10:33:25;;;;;;;4.28;2.88;;;;;;;11.56;45.04;97952.09;5032427;28;20030;-79
2021/05/06 10:35:51;;;;;;;;;;;;;;;11.55;44.23;97946.91;5033234;28;20022;-79
2021/05/06 10:38:16;;;;;;;6.30;2.47;;;;;;;11.59;45.20;97943.25;5032241;28;19920;-79
2021/05/06 10:40:42;;;;;;;4.55;2.08;;;;;;;11.57;44.88;97947.41;5032244;28;20099;-79
2021/05/06 10:43:28;;;;;;;4.20;2.60;;;;;;;11.46;44.93;97942.19;5036465;28;20068;-79
2021/05/06 10:46:01;;;;;;;7.82;3.03;;;;;;;11.55;45.29;97938.66;5036587;28;20479;-79
2021/05/06 10:49:01;;;;;;;4.38;2.65;;;;;;;11.72;45.68;97935.19;5051661;28;20466;-79
2021/05/06 10:51:36;;;;;;;;;;;;;;;11.68;45.39;97934.19;5035501;28;20486;-78
2021/05/06 10:54:40;;;;;;;8.07;2.90;;;;;;;11.59;45.07;97923.19;5036121;28;20027;-79
2021/05/06 10:57:12;;;;;;;5.43;3.00;;;;;;;11.52;45.34;97933.81;5036378;28;20105;-79
2021/05/06 10:59:39;;;;;;;6.63;3.60;;;;;;;11.50;45.19;97933.31;5036158;28;20034;-79
2021/05/06 11:02:05;;;;;;;13.55;7.20;;;;;;;11.51;45.24;97934.94;5036063;28;20030;-78
2021/05/06 11:04:36;;;;;;;12.98;7.93;;;;;;;11.52;44.76;97933.81;5051490;28;20036;-79
2021/05/06 11:07:22;;;;;;;14.00;9.32;;;;;;;11.59;44.69;97925.94;5036178;28;20458;-78
2021/05/06 11:09:54;;;;;;;6.97;3.28;;;;;;;11.59;44.11;97935.00;5035889;28;20108;-79
2021/05/06 11:12:22;;;;;;;5.35;2.83;;;;;;;11.59;43.19;97925.94;5035857;28;20032;-79
2021/05/06 11:15:03;;;;;;;7.18;3.20;;;;;;;11.66;44.76;97929.03;5036075;28;20422;-79
2021/05/06 11:17:35;;;;;;;3.97;2.13;;;;;;;11.90;42.69;97936.06;5035604;28;20128;-79
2021/05/06 11:20:20;;;;;;;4.47;2.10;;;;;;;12.10;41.89;97931.16;5036269;28;20030;-84
2021/05/06 11:22:53;;;;;;;4.75;1.92;;;;;;;12.29;42.30;97936.38;5030638;28;20441;-85
2021/05/06 11:25:28;;;;;;;3.42;2.05;;;;;;;12.35;40.50;97933.16;5035473;28;20432;-84
2021/05/06 11:28:05;;;;;;;2.45;1.60;;;;;;;12.44;39.89;97922.16;5035506;28;20033;-84
2021/05/06 11:30:42;;;;;;;4.38;1.88;;;;;;;12.57;40.22;97917.66;5035574;28;20104;-85
2021/05/06 11:33:17;;;;;;;5.53;2.45;;;;;;;12.71;41.02;97913.91;5037650;28;20121;-84
2021/05/06 11:36:03;;;;;;;5.53;2.67;;;;;;;12.94;41.63;97914.56;5054841;28;20031;-85
2021/05/06 11:38:42;;;;;;;4.10;2.00;;;;;;;13.25;41.70;97913.53;5039220;28;20030;-84
2021/05/06 11:41:19;;;;;;;27.45;15.73;;;;;;;13.42;40.56;97911.91;5040632;28;20083;-83
2021/05/06 11:43:59;;;;;;;6.38;2.50;;;;;;;13.50;41.64;97911.09;5039178;28;20034;-83
2021/05/06 11:46:29;;;;;;;46.95;35.63;;;;;;;13.64;41.58;97911.69;5040415;28;20028;-84
2021/05/06 11:49:00;;;;;;;5.47;2.72;;;;;;;13.63;41.37;97921.09;5039020;28;20104;-84
2021/05/06 11:51:32;;;;;;;3.97;2.50;;;;;;;13.44;40.19;97912.41;5039241;28;20055;-85
2021/05/06 11:54:18;;;;;;;20.65;14.98;;;;;;;13.38;40.75;97907.03;5036581;28;20033;-85
2021/05/06 11:57:01;;;;;;;7.18;3.22;;;;;;;13.39;41.16;97899.59;5039064;28;20017;-86
2021/05/06 11:59:34;;;;;;;5.43;2.80;;;;;;;13.37;40.79;97918.38;5038660;28;20432;-85
2021/05/06 12:02:07;;;;;;;6.40;4.00;;;;;;;13.51;40.58;97919.00;5038746;28;20036;-85
2021/05/06 12:04:35;;;;;;;4.22;2.20;;;;;;;13.64;39.88;97921.88;5041683;28;20057;-85
2021/05/06 12:07:16;;;;;;;3.50;1.90;;;;;;;13.49;38.49;97914.97;5039067;28;20410;-86
2021/05/06 12:09:41;;;;;;;4.40;2.55;;;;;;;13.51;39.23;97912.69;5035984;28;20056;-86
2021/05/06 12:12:07;;;;;;;5.45;2.75;;;;;;;13.37;39.18;97910.91;5036001;28;20084;-85
2021/05/06 12:14:37;;;;;;;6.63;2.85;;;;;;;13.30;40.37;97913.34;5051212;28;20028;-84
2021/05/06 12:17:04;;;;;;;11.15;6.85;;;;;;;13.18;40.72;97924.25;5050717;28;20041;-85
2021/05/06 12:19:30;;;;;;;10.55;5.63;;;;;;;13.12;40.88;97915.34;5035539;28;20025;-84
2021/05/06 12:21:58;;;;;;;6.97;3.88;;;;;;;13.12;40.98;97903.53;5035136;28;20086;-84
2021/05/06 12:24:31;;;;;;;9.05;5.15;;;;;;;13.14;41.34;97924.09;5034513;28;20090;-85
2021/05/06 12:26:56;;;;;;;7.50;4.80;;;;;;;13.25;41.55;97899.75;5034697;28;20156;-80
2021/05/06 12:29:23;;;;;;;3.58;2.72;;;;;;;13.54;41.10;97901.81;5035317;28;20049;-87
2021/05/06 12:31:50;;;;;;;6.25;3.10;;;;;;;13.40;40.72;97902.00;5034795;28;20032;-87
2021/05/06 12:34:18;;;;;;;3.88;2.67;;;;;;;13.31;39.71;97903.97;5049926;28;20025;-87
2021/05/06 12:36:49;;;;;;;7.45;3.17;;;;;;;13.14;40.29;97891.03;5050547;28;20064;-85
2021/05/06 12:39:16;;;;;;;7.97;4.70;;;;;;;13.07;39.79;97885.22;5035142;28;20482;-86
2021/05/06 12:41:52;;;;;;;4.97;3.10;;;;;;;13.06;40.55;97878.94;5034658;28;20512;-85
2021/05/06 12:44:42;;;;;;;26.48;14.07;;;;;;;13.06;40.71;97878.09;5035084;28;20482;-86
2021/05/06 12:47:17;;;;;;;6.10;3.42;;;;;;;14.21;39.78;97868.25;5035466;28;20022;-85
2021/05/06 12:49:43;;;;;;;99.60;59.80;;;;;;;15.74;39.05;97866.13;5034943;28;20025;-85
2021/05/06 12:52:28;;;;;;;11.82;6.50;;;;;;;15.58;37.71;97861.28;5034906;28;20025;-85
2021/05/06 12:54:53;;;;;;;20.88;14.30;;;;;;;16.86;37.79;97861.22;5034935;28;20018;-85
2021/05/06 12:57:19;;;;;;;9.60;4.30;;;;;;;18.59;34.34;97847.19;5034816;28;20017;-84
2021/05/06 12:59:49;;;;;;;8.13;4.68;;;;;;;17.44;32.14;97845.34;5034899;28;20035;-85
2021/05/06 13:02:15;;;;;;;;;;;;;;;16.86;34.14;97844.59;5035133;28;20140;-85
2021/05/06 13:04:48;;;;;;;6.70;3.55;;;;;;;17.03;34.59;97849.06;5034605;28;19949;-84
2021/05/06 13:07:15;;;;;;;6.38;3.30;;;;;;;15.94;34.28;97853.38;5050351;28;20029;-84
2021/05/06 13:09:51;;;;;;;5.32;3.72;;;;;;;15.38;35.57;97856.66;5053461;28;20083;-83
2021/05/06 13:12:26;;;;;;;7.85;4.50;;;;;;;14.88;35.96;97851.81;5053272;28;20462;-83
2021/05/06 13:14:53;;;;;;;8.50;3.53;;;;;;;14.54;37.31;97837.16;5052897;28;20469;-84
2021/05/06 13:17:27;;;;;;;6.22;3.60;;;;;;;14.16;38.14;97854.66;5052777;28;20037;-84
2021/05/06 13:19:54;;;;;;;10.10;4.65;;;;;;;13.69;38.62;97848.09;5052553;28;20029;-84
2021/05/06 13:22:21;;;;;;;10.65;5.53;;;;;;;13.43;39.30;97844.66;5052500;28;20040;-84
2021/05/06 13:24:49;;;;;;;8.25;4.22;;;;;;;13.54;40.03;97837.66;5052705;28;20496;-84
2021/05/06 13:27:24;;;;;;;9.38;4.22;;;;;;;13.47;40.47;97837.38;5052792;28;20167;-84
2021/05/06 13:29:59;;;;;;;35.03;19.95;;;;;;;14.83;40.83;97845.69;5053148;28;20060;-84
2021/05/06 13:32:38;;;;;;;11.82;6.75;;;;;;;17.06;36.57;97809.56;5053123;28;20028;-83
2021/05/06 13:35:05;;;;;;;5.97;3.80;;;;;;;19.56;33.45;97817.66;5053397;28;20065;-85
2021/05/06 13:37:36;;;;;;;11.50;7.60;;;;;;;21.47;30.97;97812.09;5052993;28;20025;-86
2021/05/06 13:40:02;;;;;;;5.85;3.28;;;;;;;23.31;29.97;97812.31;5052842;28;20104;-76
2021/05/06 13:42:28;;;;;;;4.18;2.15;;;;;;;24.69;27.25;97812.91;5052773;28;20029;-77
2021/05/06 13:44:56;;;;;;;10.10;5.75;;;;;;;25.39;25.14;97805.72;5053176;28;20104;-76
2021/05/06 13:47:25;;;;;;;9.18;5.97;;;;;;;25.37;22.20;97796.91;5052673;28;20032;-75
2021/05/06 13:49:51;;;;;;;11.32;7.95;;;;;;;23.41;23.76;97811.53;5052628;28;20087;-74
2021/05/06 13:52:16;;;;;;;12.25;7.15;;;;;;;22.80;24.92;97803.78;5052707;28;20037;-77
2021/05/06 13:54:42;;;;;;;7.68;3.40;;;;;;;22.75;24.72;97813.34;5052395;28;20017;-76
2021/05/06 13:57:08;;;;;;;6.35;3.15;;;;;;;22.98;24.06;97801.03;5051762;28;20035;-77
2021/05/06 13:59:33;;;;;;;7.50;3.45;;;;;;;23.47;22.74;97790.31;5050280;28;20025;-79
2021/05/06 14:01:58;;;;;;;8.80;5.75;;;;;;;23.84;23.08;97798.72;5037378;28;20025;-80
2021/05/06 14:04:24;;;;;;;12.52;6.38;;;;;;;24.02;23.98;97791.09;5040093;28;20044;-80
2021/05/06 14:06:50;;;;;;;4.82;3.85;;;;;;;24.44;23.81;97794.19;5051177;28;20021;-78
2021/05/06 14:09:17;;;;;;;6.38;3.58;;;;;;;25.36;23.80;97792.50;5050596;28;20033;-79
2021/05/06 14:11:43;;;;;;;9.25;3.88;;;;;;;24.34;23.86;97795.03;5051796;28;20029;-77
2021/05/06 14:14:11;;;;;;;11.38;5.00;;;;;;;23.55;23.93;97785.53;5044254;28;20079;-78
2021/05/06 14:16:38;;;;;;;7.32;3.67;;;;;;;23.55;24.43;97770.72;5051596;28;20116;-78
2021/05/06 14:19:06;;;;;;;5.90;3.53;;;;;;;24.16;23.86;97778.28;5057675;28;20036;-78
2021/05/06 14:21:32;;;;;;;12.98;6.05;;;;;;;22.10;24.22;97784.28;5060314;28;20462;-79
2021/05/06 14:23:57;;;;;;;6.22;3.42;;;;;;;20.07;25.49;97776.72;5054766;28;20103;-78
2021/05/06 14:26:23;;;;;;;7.20;3.45;;;;;;;18.37;27.66;97779.31;5081408;28;20025;-78
2021/05/06 14:28:49;;;;;;;8.73;4.25;;;;;;;17.18;29.39;97772.66;5029909;28;20028;-77
2021/05/06 14:31:14;;;;;;;9.50;6.10;;;;;;;16.31;30.70;97766.72;5024270;28;20060;-78
2021/05/06 14:33:40;;;;;;;5.85;3.97;;;;;;;15.68;31.89;97777.13;5034626;28;20029;-79
2021/05/06 14:36:07;;;;;;;5.20;2.75;;;;;;;15.22;32.59;97762.59;5032655;28;20040;-79
2021/05/06 14:38:32;;;;;;;6.22;3.22;;;;;;;14.99;33.79;97780.41;5033645;28;20040;-79
2021/05/06 14:40:58;;;;;;;5.85;2.72;;;;;;;15.95;33.32;97763.72;5035737;28;20377;-80
2021/05/06 14:43:23;;;;;;;6.30;2.80;;;;;;;16.72;32.15;97750.84;5032497;28;20108;-81
2021/05/06 14:45:49;;;;;;;11.80;5.13;;;;;;;16.77;32.05;97739.50;5034420;28;20435;-80
2021/05/06 14:48:15;;;;;;;10.10;5.43;;;;;;;16.20;32.16;97741.50;5031478;28;20056;-79
2021/05/06 14:50:40;;;;;;;7.90;3.55;;;;;;;15.79;33.35;97735.97;5024912;28;20028;-81
2021/05/06 14:53:06;;;;;;;6.78;3.47;;;;;;;15.32;33.30;97740.84;5026630;28;20460;-80
2021/05/06 14:55:32;;;;;;;5.63;3.20;;;;;;;15.00;33.84;97739.78;5032236;28;20902;-81
2021/05/06 14:57:57;;;;;;;7.18;3.60;;;;;;;15.02;33.63;97735.53;5039305;28;20025;-78
2021/05/06 15:00:23;;;;;;;22.75;12.18;;;;;;;15.70;33.47;97730.56;5028863;28;20045;-79
2021/05/06 15:02:50;;;;;;;6.00;3.00;;;;;;;16.09;32.97;97724.63;5029105;28;20025;-79
2021/05/06 15:05:17;;;;;;;14.32;6.53;;;;;;;16.04;32.94;97717.38;5029023;28;20060;-79